Time;durP1;ratioP1;P1;durP2;ratioP2;P2;SDS_P1;SDS_P2;PMS_P1;PMS_P2;Temp;Humidity;BMP_temperature;BMP_pressure;BME280_temperature;BME280_humidity;BME280_pressure;Samples;Min_cycle;Max_cycle;Signal;HPM_P1;HPM_P2
2024/01/17 00:00:51;;;;;;;6.97;4.77;;;;;;;;;;5027324;28;20235;-59
2024/01/17 00:03:18;;;;;;;8.13;4.83;;;;;;;;;;5038515;28;20200;-59
2024/01/17 00:05:45;;;;;;;5.13;3.07;;;;;;;;;;5038871;28;20215;-60
2024/01/17 00:08:13;;;;;;;9.30;4.13;;;;;;;;;;5026882;28;20243;-59
2024/01/17 00:10:40;;;;;;;8.33;3.53;;;;;;;;;;5027193;28;20219;-59
2024/01/17 00:13:07;;;;;;;8.30;4.13;;;;;;;;;;5019665;28;20232;-59
2024/01/17 00:15:34;;;;;;;10.07;4.77;;;;;;;;;;5007875;28;20227;-60
2024/01/17 00:18:01;;;;;;;7.70;4.00;;;;;;;;;;5032454;28;20249;-60
2024/01/17 00:20:28;;;;;;;8.50;4.37;;;;;;;;;;5026947;28;20579;-59
2024/01/17 00:22:55;;;;;;;6.57;3.93;;;;;;;;;;5033164;28;20555;-59
2024/01/17 00:25:25;;;;;;;6.67;3.70;;;;;;;;;;5028183;28;20219;-60
2024/01/17 00:27:52;;;;;;;7.17;4.80;;;;;;;;;;5026810;28;20212;-59
2024/01/17 00:30:19;;;;;;;9.40;5.30;;;;;;;;;;5026380;28;20204;-59
2024/01/17 00:32:47;;;;;;;9.97;4.90;;;;;;;;;;5030104;28;20228;-60
2024/01/17 00:35:14;;;;;;;13.17;5.03;;;;;;;;;;5027182;28;20633;-60
2024/01/17 00:37:41;;;;;;;10.70;4.40;;;;;;;;;;5026895;28;20208;-59
2024/01/17 00:40:09;;;;;;;9.80;5.27;;;;;;;;;;5026809;28;20204;-60
2024/01/17 00:42:37;;;;;;;12.73;4.73;;;;;;;;;;5028497;28;20200;-59
2024/01/17 00:45:06;;;;;;;8.97;4.67;;;;;;;;;;5034537;28;20212;-59
2024/01/17 00:47:33;;;;;;;6.60;4.23;;;;;;;;;;5026316;28;20247;-59
2024/01/17 00:50:00;;;;;;;6.20;3.93;;;;;;;;;;5026699;28;20216;-60
2024/01/17 00:52:27;;;;;;;18.87;5.30;;;;;;;;;;5028738;28;20614;-59
2024/01/17 00:54:54;;;;;;;14.17;4.80;;;;;;;;;;5049468;28;20761;-59
2024/01/17 00:57:21;;;;;;;9.67;4.27;;;;;;;;;;5029686;28;20212;-59
2024/01/17 00:59:50;;;;;;;9.60;4.17;;;;;;;;;;5030500;28;20205;-59
2024/01/17 01:02:17;;;;;;;7.97;3.97;;;;;;;;;;5020348;28;20209;-59
2024/01/17 01:04:44;;;;;;;7.57;4.47;;;;;;;;;;5018307;28;20696;-60
2024/01/17 01:07:11;;;;;;;8.30;5.23;;;;;;;;;;5020921;28;20343;-59
2024/01/17 01:09:38;;;;;;;7.37;4.37;;;;;;;;;;5031432;28;20273;-60
2024/01/17 01:12:05;;;;;;;7.17;3.70;;;;;;;;;;5029760;28;20669;-59
2024/01/17 01:14:32;;;;;;;6.13;3.83;;;;;;;;;;5029895;28;20319;-60
2024/01/17 01:17:01;;;;;;;9.90;4.03;;;;;;;;;;5029396;28;20205;-60
2024/01/17 01:19:28;;;;;;;13.67;3.93;;;;;;;;;;5029817;28;20551;-60
2024/01/17 01:21:55;;;;;;;8.17;3.70;;;;;;;;;;5030395;28;20220;-59
2024/01/17 01:24:22;;;;;;;5.13;3.63;;;;;;;;;;5033999;28;20216;-59
2024/01/17 01:26:49;;;;;;;8.33;4.27;;;;;;;;;;5033363;28;20398;-59
2024/01/17 01:29:16;;;;;;;6.37;3.80;;;;;;;;;;5029336;28;20912;-59
2024/01/17 01:31:43;;;;;;;5.13;3.50;;;;;;;;;;5031990;28;20205;-59
2024/01/17 01:34:11;;;;;;;7.37;4.17;;;;;;;;;;5027406;28;20239;-59
2024/01/17 01:36:38;;;;;;;8.77;4.13;;;;;;;;;;5035087;28;20214;-60
2024/01/17 01:39:05;;;;;;;8.57;4.97;;;;;;;;;;5033542;28;20205;-59
2024/01/17 01:41:32;;;;;;;10.47;4.07;;;;;;;;;;5029808;28;20200;-59
2024/01/17 01:43:59;;;;;;;8.97;4.57;;;;;;;;;;5037924;28;20324;-59
2024/01/17 01:46:29;;;;;;;7.30;3.97;;;;;;;;;;5028387;28;20692;-59
2024/01/17 01:48:56;;;;;;;7.37;3.93;;;;;;;;;;5028881;28;20231;-60
2024/01/17 01:51:25;;;;;;;10.93;4.67;;;;;;;;;;5028693;28;20215;-59
2024/01/17 01:53:54;;;;;;;6.10;4.10;;;;;;;;;;5047975;28;20226;-60
2024/01/17 01:56:23;;;;;;;8.40;4.20;;;;;;;;;;5047700;28;20203;-59
2024/01/17 01:58:50;;;;;;;10.77;3.93;;;;;;;;;;5043016;28;20227;-60
2024/01/17 02:01:17;;;;;;;4.57;3.57;;;;;;;;;;5028332;28;20208;-60
2024/01/17 02:03:45;;;;;;;4.53;3.57;;;;;;;;;;5028245;28;20701;-59
2024/01/17 02:06:14;;;;;;;5.83;3.90;;;;;;;;;;5029183;28;20231;-59
2024/01/17 02:08:42;;;;;;;11.00;4.17;;;;;;;;;;5028879;28;20233;-59
2024/01/17 02:11:09;;;;;;;7.43;3.90;;;;;;;;;;5028828;28;20212;-59
2024/01/17 02:13:36;;;;;;;9.83;4.80;;;;;;;;;;5046193;28;20596;-59
2024/01/17 02:16:04;;;;;;;6.33;3.70;;;;;;;;;;5009379;28;20213;-59
2024/01/17 02:18:31;;;;;;;7.43;4.13;;;;;;;;;;5025932;28;20606;-58
2024/01/17 02:20:58;;;;;;;6.63;4.10;;;;;;;;;;5029736;28;20221;-60
2024/01/17 02:26:30;;;;;;;4.60;3.67;;;;;;;;;;5044510;28;20191;-59
2024/01/17 02:28:57;;;;;;;6.40;3.93;;;;;;;;;;5036241;28;20258;-58
2024/01/17 02:31:24;;;;;;;9.57;4.33;;;;;;;;;;5027873;28;20666;-59
2024/01/17 02:33:51;;;;;;;5.63;3.97;;;;;;;;;;5042308;28;20232;-59
2024/01/17 02:36:18;;;;;;;8.70;4.10;;;;;;;;;;5039287;28;20255;-59
2024/01/17 02:38:45;;;;;;;8.47;4.63;;;;;;;;;;5028610;28;20204;-60
2024/01/17 02:41:12;;;;;;;7.47;3.83;;;;;;;;;;5029760;28;20200;-59
2024/01/17 02:43:41;;;;;;;6.33;4.03;;;;;;;;;;5028846;28;20215;-59
2024/01/17 02:46:08;;;;;;;14.13;4.90;;;;;;;;;;5030871;28;20232;-59
2024/01/17 02:48:35;;;;;;;5.90;3.73;;;;;;;;;;5027965;28;20622;-58
2024/01/17 02:51:02;;;;;;;11.97;4.27;;;;;;;;;;5028422;28;20217;-59
2024/01/17 02:53:29;;;;;;;9.83;4.47;;;;;;;;;;5028075;28;20232;-59
2024/01/17 02:55:56;;;;;;;8.87;4.40;;;;;;;;;;5027916;28;20559;-59
2024/01/17 02:58:23;;;;;;;7.77;3.80;;;;;;;;;;5041765;28;20235;-59
2024/01/17 03:00:52;;;;;;;16.17;6.87;;;;;;;;;;5028446;28;20201;-59
2024/01/17 03:03:19;;;;;;;23.27;9.13;;;;;;;;;;5028541;28;20200;-59
2024/01/17 03:05:46;;;;;;;20.97;8.20;;;;;;;;;;5028188;28;20212;-59
2024/01/17 03:08:13;;;;;;;23.10;8.07;;;;;;;;;;5031570;28;20236;-60
2024/01/17 03:10:40;;;;;;;24.40;7.60;;;;;;;;;;5027490;28;20208;-60
2024/01/17 03:13:08;;;;;;;21.13;7.73;;;;;;;;;;5014946;28;20228;-60
2024/01/17 03:15:35;;;;;;;15.73;7.03;;;;;;;;;;5030565;28;20303;-60
2024/01/17 03:18:06;;;;;;;16.07;6.73;;;;;;;;;;5042037;28;20251;-60
2024/01/17 03:20:33;;;;;;;10.17;4.77;;;;;;;;;;5028787;28;20216;-59
2024/01/17 03:23:00;;;;;;;12.40;5.13;;;;;;;;;;5027464;28;20242;-60
2024/01/17 03:25:27;;;;;;;8.93;5.20;;;;;;;;;;5028810;28;20208;-59
2024/01/17 03:27:54;;;;;;;21.27;7.10;;;;;;;;;;5044156;28;20619;-60
2024/01/17 03:30:21;;;;;;;14.33;6.60;;;;;;;;;;5027521;28;20258;-59
2024/01/17 03:32:48;;;;;;;11.93;6.27;;;;;;;;;;5027782;28;20228;-59
2024/01/17 03:35:17;;;;;;;11.73;5.40;;;;;;;;;;5027663;28;20211;-59
2024/01/17 03:37:44;;;;;;;10.60;4.63;;;;;;;;;;5008076;28;20269;-59
2024/01/17 03:40:11;;;;;;;7.77;4.57;;;;;;;;;;5025320;28;20713;-59
2024/01/17 03:42:38;;;;;;;4.77;4.00;;;;;;;;;;5027653;28;20215;-59
2024/01/17 03:45:06;;;;;;;7.43;3.87;;;;;;;;;;5027448;28;20216;-59
2024/01/17 03:47:33;;;;;;;5.03;3.57;;;;;;;;;;5028214;28;20212;-59
2024/01/17 03:50:00;;;;;;;4.37;3.97;;;;;;;;;;5027436;28;20209;-59
2024/01/17 03:52:28;;;;;;;6.87;4.03;;;;;;;;;;5030022;28;20691;-59
2024/01/17 03:54:55;;;;;;;9.00;4.40;;;;;;;;;;5027568;28;20228;-59
2024/01/17 03:57:22;;;;;;;6.57;4.30;;;;;;;;;;5026634;28;20215;-60
2024/01/17 03:59:49;;;;;;;10.87;4.90;;;;;;;;;;5027398;28;20843;-59
2024/01/17 04:02:16;;;;;;;15.33;4.00;;;;;;;;;;5041702;28;20204;-59
2024/01/17 04:04:45;;;;;;;9.27;4.37;;;;;;;;;;5036758;28;20204;-59
2024/01/17 04:07:12;;;;;;;9.37;3.83;;;;;;;;;;5033062;28;20240;-59
2024/01/17 04:09:43;;;;;;;4.00;3.60;;;;;;;;;;5026888;28;20700;-59
2024/01/17 04:12:10;;;;;;;8.33;4.27;;;;;;;;;;5017807;28;20292;-59
2024/01/17 04:14:37;;;;;;;11.00;4.47;;;;;;;;;;5027265;28;20251;-59
2024/01/17 04:17:04;;;;;;;8.03;3.93;;;;;;;;;;5033341;28;20235;-59
2024/01/17 04:19:31;;;;;;;7.93;4.93;;;;;;;;;;5030956;28;20211;-59
2024/01/17 04:21:58;;;;;;;10.07;4.50;;;;;;;;;;5034443;28;20207;-60
2024/01/17 04:24:25;;;;;;;10.97;5.03;;;;;;;;;;5033687;28;20619;-62
2024/01/17 04:26:55;;;;;;;7.13;4.23;;;;;;;;;;5030077;28;20238;-60
2024/01/17 04:29:23;;;;;;;11.27;5.10;;;;;;;;;;5040763;28;20215;-59
2024/01/17 04:31:50;;;;;;;7.97;5.50;;;;;;;;;;5044227;28;20215;-59
2024/01/17 04:34:17;;;;;;;9.47;4.90;;;;;;;;;;5030664;28;20224;-59
2024/01/17 04:36:44;;;;;;;8.83;4.50;;;;;;;;;;5031525;28;20230;-59
2024/01/17 04:39:11;;;;;;;9.43;4.33;;;;;;;;;;5030700;28;20302;-59
2024/01/17 04:41:39;;;;;;;8.20;4.10;;;;;;;;;;5031092;28;20216;-59
2024/01/17 04:44:07;;;;;;;8.27;3.90;;;;;;;;;;5011118;28;20197;-59
2024/01/17 04:46:35;;;;;;;4.70;3.87;;;;;;;;;;5023237;28;20212;-59
2024/01/17 04:49:02;;;;;;;7.13;4.37;;;;;;;;;;5026894;28;20215;-59
2024/01/17 04:51:29;;;;;;;8.77;4.43;;;;;;;;;;5025694;28;20616;-59
2024/01/17 04:53:58;;;;;;;10.20;5.07;;;;;;;;;;5048427;28;20231;-59
2024/01/17 04:56:25;;;;;;;5.50;3.77;;;;;;;;;;5043469;28;20212;-59
2024/01/17 04:58:52;;;;;;;7.87;4.50;;;;;;;;;;5030182;28;20319;-59
2024/01/17 05:01:21;;;;;;;7.97;4.73;;;;;;;;;;5037066;28;20212;-60
2024/01/17 05:03:48;;;;;;;11.63;5.00;;;;;;;;;;5030293;28;20212;-59
2024/01/17 05:06:15;;;;;;;11.93;4.50;;;;;;;;;;5039612;28;20213;-59
2024/01/17 05:08:42;;;;;;;7.80;4.43;;;;;;;;;;5019878;28;20256;-59
2024/01/17 05:11:09;;;;;;;9.70;3.97;;;;;;;;;;5030155;28;20688;-59
2024/01/17 05:13:36;;;;;;;7.47;4.17;;;;;;;;;;5030213;28;20255;-59
2024/01/17 05:16:03;;;;;;;7.70;4.10;;;;;;;;;;5031117;28;20220;-60
2024/01/17 05:18:31;;;;;;;7.03;4.37;;;;;;;;;;5044032;28;20544;-59
2024/01/17 05:20:58;;;;;;;7.43;4.67;;;;;;;;;;5030123;28;20205;-60
2024/01/17 05:23:25;;;;;;;7.37;4.97;;;;;;;;;;5030087;28;20204;-59
2024/01/17 05:25:53;;;;;;;10.97;5.60;;;;;;;;;;5030419;28;20219;-59
2024/01/17 05:28:20;;;;;;;7.17;4.80;;;;;;;;;;5029196;28;20215;-59
2024/01/17 05:30:47;;;;;;;10.40;5.03;;;;;;;;;;5029972;28;20227;-59
2024/01/17 05:33:14;;;;;;;12.63;5.13;;;;;;;;;;5029768;28;20208;-59
2024/01/17 05:35:42;;;;;;;8.90;4.87;;;;;;;;;;5032274;28;20200;-59
2024/01/17 05:38:09;;;;;;;4.23;3.83;;;;;;;;;;5034152;28;20246;-59
2024/01/17 05:40:36;;;;;;;7.43;4.23;;;;;;;;;;5030247;28;20440;-59
2024/01/17 05:43:03;;;;;;;9.00;5.07;;;;;;;;;;5032216;28;20211;-59
2024/01/17 05:45:30;;;;;;;7.80;4.70;;;;;;;;;;5045850;28;20238;-58
2024/01/17 05:47:57;;;;;;;11.87;4.90;;;;;;;;;;5040644;28;20212;-59
2024/01/17 05:50:25;;;;;;;9.00;4.03;;;;;;;;;;5029633;28;20207;-59
2024/01/17 05:52:53;;;;;;;7.97;4.23;;;;;;;;;;5029822;28;20204;-59
2024/01/17 05:55:21;;;;;;;7.57;4.13;;;;;;;;;;5030071;28;20288;-59
2024/01/17 05:57:48;;;;;;;8.53;4.70;;;;;;;;;;5029427;28;20262;-59
2024/01/17 06:00:15;;;;;;;12.53;5.30;;;;;;;;;;5030751;28;20201;-60
2024/01/17 06:02:43;;;;;;;10.30;4.83;;;;;;;;;;5029415;28;20208;-59
2024/01/17 06:05:11;;;;;;;8.13;4.77;;;;;;;;;;5029311;28;20676;-59
2024/01/17 06:07:39;;;;;;;9.10;5.43;;;;;;;;;;5035019;28;20228;-59
2024/01/17 06:10:11;;;;;;;8.67;4.90;;;;;;;;;;5023792;28;20697;-59
2024/01/17 06:12:38;;;;;;;6.97;4.67;;;;;;;;;;5022147;28;20587;-59
2024/01/17 06:15:06;;;;;;;9.90;5.70;;;;;;;;;;5024531;28;20232;-59
2024/01/17 06:17:33;;;;;;;9.47;4.80;;;;;;;;;;5023390;28;20208;-59
2024/01/17 06:20:00;;;;;;;5.97;4.30;;;;;;;;;;5028180;28;20269;-59
2024/01/17 06:22:27;;;;;;;5.23;3.80;;;;;;;;;;5031852;28;20551;-59
2024/01/17 06:24:54;;;;;;;8.00;4.23;;;;;;;;;;5028476;28;20518;-59
2024/01/17 06:27:26;;;;;;;7.63;3.83;;;;;;;;;;5044113;28;20212;-59
2024/01/17 06:29:53;;;;;;;10.43;4.80;;;;;;;;;;5028881;28;20222;-59
2024/01/17 06:32:20;;;;;;;6.50;4.10;;;;;;;;;;5028650;28;20219;-59
2024/01/17 06:34:47;;;;;;;12.10;5.23;;;;;;;;;;5028592;28;20239;-59
2024/01/17 06:37:14;;;;;;;27.73;13.33;;;;;;;;;;5025715;28;20580;-59
2024/01/17 06:39:41;;;;;;;18.83;8.33;;;;;;;;;;5025906;28;20196;-59
2024/01/17 06:42:08;;;;;;;31.87;12.13;;;;;;;;;;5044890;28;20204;-59
2024/01/17 06:44:36;;;;;;;10.80;5.57;;;;;;;;;;5044181;28;20649;-59
2024/01/17 06:47:03;;;;;;;30.33;11.47;;;;;;;;;;5047324;28;20919;-59
2024/01/17 06:49:31;;;;;;;11.30;6.30;;;;;;;;;;5036202;28;20295;-58
2024/01/17 06:51:58;;;;;;;20.27;11.10;;;;;;;;;;5027644;28;20589;-59
2024/01/17 06:54:25;;;;;;;12.80;6.77;;;;;;;;;;5036698;28;20696;-58
2024/01/17 06:56:53;;;;;;;62.30;20.03;;;;;;;;;;5036776;28;20218;-59
2024/01/17 06:59:20;;;;;;;11.27;5.93;;;;;;;;;;5032958;28;20603;-59
2024/01/17 07:01:49;;;;;;;14.43;5.70;;;;;;;;;;5040520;28;20197;-58
2024/01/17 07:04:16;;;;;;;24.07;9.03;;;;;;;;;;5024611;28;20216;-58
2024/01/17 07:06:43;;;;;;;23.33;8.43;;;;;;;;;;5036348;28;20244;-58
2024/01/17 07:09:11;;;;;;;17.97;6.17;;;;;;;;;;5027343;28;20270;-59
2024/01/17 07:11:38;;;;;;;11.03;4.87;;;;;;;;;;5035753;28;20232;-59
2024/01/17 07:14:05;;;;;;;10.60;5.50;;;;;;;;;;5026452;28;20267;-59
2024/01/17 07:16:32;;;;;;;6.60;4.97;;;;;;;;;;5028756;28;20206;-59
2024/01/17 07:19:01;;;;;;;19.53;9.80;;;;;;;;;;5027400;28;20219;-58
2024/01/17 07:21:28;;;;;;;10.67;6.23;;;;;;;;;;5025886;28;20220;-58
2024/01/17 07:23:55;;;;;;;12.37;5.30;;;;;;;;;;5026895;28;20212;-59
2024/01/17 07:26:25;;;;;;;7.10;4.40;;;;;;;;;;5028785;28;20223;-60
2024/01/17 07:28:52;;;;;;;7.00;3.70;;;;;;;;;;5027102;28;20204;-61
2024/01/17 07:31:20;;;;;;;9.97;5.03;;;;;;;;;;5040758;28;20298;-59
2024/01/17 07:33:47;;;;;;;9.77;5.03;;;;;;;;;;5024072;28;20274;-59
2024/01/17 07:36:15;;;;;;;9.33;4.77;;;;;;;;;;5026826;28;20273;-59
2024/01/17 07:38:42;;;;;;;10.90;4.90;;;;;;;;;;5033532;28;20211;-60
2024/01/17 07:41:09;;;;;;;10.53;5.57;;;;;;;;;;5029223;28;20208;-59
2024/01/17 07:43:36;;;;;;;18.07;6.83;;;;;;;;;;5042701;28;20212;-59
2024/01/17 07:46:04;;;;;;;12.63;6.10;;;;;;;;;;5031716;28;20200;-59
2024/01/17 07:48:33;;;;;;;6.40;4.60;;;;;;;;;;5027545;28;20203;-61
2024/01/17 07:51:00;;;;;;;8.57;5.20;;;;;;;;;;5027557;28;20234;-59
2024/01/17 07:53:28;;;;;;;12.93;5.63;;;;;;;;;;5029659;28;20215;-60
2024/01/17 07:55:58;;;;;;;8.63;4.70;;;;;;;;;;5037592;28;20235;-60
2024/01/17 07:58:25;;;;;;;12.50;5.03;;;;;;;;;;5028596;28;20858;-60
2024/01/17 08:00:53;;;;;;;9.47;5.73;;;;;;;;;;5035920;28;20939;-60
2024/01/17 08:03:20;;;;;;;8.27;5.80;;;;;;;;;;5046379;28;20208;-59
2024/01/17 08:05:47;;;;;;;11.53;6.13;;;;;;;;;;5035655;28;20868;-59
2024/01/17 08:08:14;;;;;;;13.83;5.93;;;;;;;;;;5043303;28;20248;-60
2024/01/17 08:10:43;;;;;;;14.70;6.03;;;;;;;;;;5032020;28;20204;-60
2024/01/17 08:13:10;;;;;;;9.20;6.00;;;;;;;;;;5029666;28;20216;-60
2024/01/17 08:15:37;;;;;;;9.17;5.37;;;;;;;;;;5045921;28;20258;-58
2024/01/17 08:18:05;;;;;;;18.70;9.43;;;;;;;;;;5043216;28;20215;-58
2024/01/17 08:20:32;;;;;;;12.53;5.77;;;;;;;;;;5031335;28;20363;-61
2024/01/17 08:22:59;;;;;;;10.40;4.40;;;;;;;;;;5031107;28;20205;-58
2024/01/17 08:25:26;;;;;;;18.00;4.90;;;;;;;;;;5030801;28;20679;-60
2024/01/17 08:27:55;;;;;;;6.77;4.73;;;;;;;;;;5031070;28;20239;-60
2024/01/17 08:30:22;;;;;;;8.63;4.40;;;;;;;;;;5040781;28;20208;-59
2024/01/17 08:32:51;;;;;;;5.23;3.13;;;;;;;;;;5040206;28;20205;-61
2024/01/17 08:35:18;;;;;;;10.07;5.13;;;;;;;;;;5041164;28;20227;-61
2024/01/17 08:37:46;;;;;;;9.23;5.40;;;;;;;;;;5033561;28;20860;-60
2024/01/17 08:40:14;;;;;;;10.33;5.73;;;;;;;;;;5028049;28;20209;-61
2024/01/17 08:42:41;;;;;;;7.37;4.97;;;;;;;;;;5028692;28;20270;-61
2024/01/17 08:45:10;;;;;;;4.77;2.43;;;;;;;;;;5041421;28;20215;-62
2024/01/17 08:47:38;;;;;;;9.27;5.03;;;;;;;;;;5042393;28;20292;-61
2024/01/17 08:50:06;;;;;;;10.23;5.30;;;;;;;;;;5029892;28;20307;-58
2024/01/17 08:52:35;;;;;;;10.80;6.00;;;;;;;;;;5029255;28;20228;-60
2024/01/17 08:55:02;;;;;;;6.23;4.73;;;;;;;;;;5030893;28;20275;-60
2024/01/17 08:57:32;;;;;;;6.43;4.40;;;;;;;;;;5029651;28;20244;-58
2024/01/17 08:59:59;;;;;;;10.03;5.37;;;;;;;;;;5031209;28;20674;-61
2024/01/17 09:02:27;;;;;;;10.27;5.57;;;;;;;;;;5024005;28;20215;-61
2024/01/17 09:04:55;;;;;;;9.93;5.13;;;;;;;;;;5027362;28;20228;-59
2024/01/17 09:07:22;;;;;;;11.90;6.00;;;;;;;;;;5030595;28;20324;-59
2024/01/17 09:09:51;;;;;;;12.33;5.50;;;;;;;;;;5044070;28;20208;-59
2024/01/17 09:12:19;;;;;;;12.00;7.80;;;;;;;;;;5035559;28;20700;-60
2024/01/17 09:14:46;;;;;;;11.97;6.23;;;;;;;;;;5038967;28;20238;-61
2024/01/17 09:17:13;;;;;;;9.50;5.93;;;;;;;;;;5031694;28;20790;-60
2024/01/17 09:19:43;;;;;;;12.30;6.37;;;;;;;;;;5037401;28;20209;-60
2024/01/17 09:22:10;;;;;;;6.37;4.87;;;;;;;;;;5030995;28;20212;-60
2024/01/17 09:24:41;;;;;;;6.97;4.20;;;;;;;;;;5032595;28;20216;-59
2024/01/17 09:27:08;;;;;;;11.97;5.57;;;;;;;;;;5030013;28;20237;-59
2024/01/17 09:29:35;;;;;;;7.90;5.03;;;;;;;;;;5037924;28;20625;-59
2024/01/17 09:32:07;;;;;;;9.27;5.40;;;;;;;;;;5031315;28;20579;-60
2024/01/17 09:34:34;;;;;;;13.03;6.07;;;;;;;;;;5028723;28;20205;-59
2024/01/17 09:37:02;;;;;;;5.53;2.97;;;;;;;;;;5030595;28;20208;-61
2024/01/17 09:39:31;;;;;;;16.67;8.10;;;;;;;;;;5032247;28;20221;-59
2024/01/17 09:41:58;;;;;;;14.10;6.80;;;;;;;;;;5029460;28;20299;-59
2024/01/17 09:44:25;;;;;;;7.30;4.97;;;;;;;;;;5032375;28;20204;-59
2024/01/17 09:46:53;;;;;;;5.10;4.33;;;;;;;;;;5038128;28;20196;-59
2024/01/17 09:49:20;;;;;;;5.27;3.47;;;;;;;;;;5036673;28;20217;-59
2024/01/17 09:51:48;;;;;;;10.97;6.50;;;;;;;;;;5031343;28;20233;-58
2024/01/17 09:54:17;;;;;;;15.90;7.13;;;;;;;;;;5029442;28;20210;-59
2024/01/17 09:56:45;;;;;;;8.37;5.83;;;;;;;;;;5027376;28;20233;-60
2024/01/17 09:59:14;;;;;;;11.60;6.07;;;;;;;;;;5027787;28;20288;-59
2024/01/17 10:01:42;;;;;;;12.07;6.20;;;;;;;;;;5030648;28;20345;-60
2024/01/17 10:04:11;;;;;;;14.17;6.57;;;;;;;;;;5026815;28;20221;-60
2024/01/17 10:06:39;;;;;;;14.17;5.97;;;;;;;;;;5029602;28;20670;-60
2024/01/17 10:09:07;;;;;;;11.93;6.67;;;;;;;;;;5028855;28;20255;-60
2024/01/17 10:11:35;;;;;;;13.00;7.13;;;;;;;;;;5034134;28;20232;-60
2024/01/17 10:14:02;;;;;;;12.87;6.47;;;;;;;;;;5037585;28;20696;-60
2024/01/17 10:16:31;;;;;;;10.47;5.13;;;;;;;;;;5031561;28;20317;-60
2024/01/17 10:19:00;;;;;;;9.30;5.50;;;;;;;;;;5031343;28;20217;-60
2024/01/17 10:21:27;;;;;;;12.63;6.50;;;;;;;;;;5031892;28;20270;-58
2024/01/17 10:23:54;;;;;;;12.47;6.50;;;;;;;;;;5033881;28;20207;-59
2024/01/17 10:26:22;;;;;;;19.67;7.30;;;;;;;;;;5033753;28;20240;-59
2024/01/17 10:28:51;;;;;;;17.00;7.23;;;;;;;;;;5028555;28;20210;-60
2024/01/17 10:31:21;;;;;;;13.03;7.33;;;;;;;;;;5024317;28;20213;-58
2024/01/17 10:33:48;;;;;;;10.87;6.67;;;;;;;;;;5023092;28;20217;-59
2024/01/17 10:36:16;;;;;;;8.87;4.17;;;;;;;;;;5031828;28;20230;-60
2024/01/17 10:38:43;;;;;;;13.60;6.37;;;;;;;;;;5027358;28;20804;-60
2024/01/17 10:41:10;;;;;;;6.10;3.87;;;;;;;;;;5029589;28;20648;-60
2024/01/17 10:43:53;;;;;;;13.80;7.10;;;;;;;;;;5028624;28;20219;-60
2024/01/17 10:46:21;;;;;;;13.27;5.87;;;;;;;;;;5026446;28;20595;-61
2024/01/17 10:48:49;;;;;;;10.37;4.23;;;;;;;;;;5031096;28;20207;-59
2024/01/17 10:51:19;;;;;;;9.93;4.47;;;;;;;;;;5029666;28;20217;-59
2024/01/17 10:53:48;;;;;;;12.37;6.87;;;;;;;;;;5034299;28;20564;-60
2024/01/17 10:56:18;;;;;;;12.20;7.03;;;;;;;;;;5016593;28;20261;-62
2024/01/17 10:58:49;;;;;;;13.00;6.90;;;;;;;;;;5030764;28;20238;-60
2024/01/17 11:01:17;;;;;;;10.20;6.30;;;;;;;;;;5026033;28;20215;-60
2024/01/17 11:03:46;;;;;;;16.27;6.43;;;;;;;;;;5028007;28;20211;-61
2024/01/17 11:06:13;;;;;;;13.50;7.17;;;;;;;;;;5033285;28;20211;-59
2024/01/17 11:08:42;;;;;;;13.07;6.07;;;;;;;;;;5025493;28;20250;-59
2024/01/17 11:11:10;;;;;;;16.13;6.90;;;;;;;;;;5029775;28;20213;-58
2024/01/17 11:13:38;;;;;;;11.30;6.83;;;;;;;;;;5038998;28;20233;-59
2024/01/17 11:16:08;;;;;;;13.17;7.47;;;;;;;;;;5033842;28;20254;-60
2024/01/17 11:18:36;;;;;;;10.07;5.87;;;;;;;;;;5026426;28;20216;-62
2024/01/17 11:21:15;;;;;;;13.30;7.17;;;;;;;;;;5026308;28;20305;-61
2024/01/17 11:23:45;;;;;;;12.87;6.00;;;;;;;;;;5028216;28;20237;-60
2024/01/17 11:26:17;;;;;;;14.60;8.00;;;;;;;;;;5027180;28;20658;-61
2024/01/17 11:28:47;;;;;;;14.60;7.57;;;;;;;;;;5026701;28;20268;-62
2024/01/17 11:31:20;;;;;;;13.70;6.80;;;;;;;;;;5026471;28;20293;-60
2024/01/17 11:33:47;;;;;;;16.17;7.40;;;;;;;;;;5035796;28;20207;-64
2024/01/17 11:36:29;;;;;;;16.43;6.87;;;;;;;;;;5028451;28;20724;-62
2024/01/17 11:38:57;;;;;;;17.33;7.40;;;;;;;;;;5025735;28;20787;-60
2024/01/17 11:41:24;;;;;;;13.70;7.57;;;;;;;;;;5030144;28;20211;-59
2024/01/17 11:43:52;;;;;;;16.10;8.33;;;;;;;;;;5028146;28;20208;-61
2024/01/17 11:46:19;;;;;;;15.90;7.53;;;;;;;;;;5040406;28;20206;-59
2024/01/17 11:48:47;;;;;;;17.17;7.20;;;;;;;;;;5030497;28;20589;-59
2024/01/17 11:51:15;;;;;;;19.13;8.27;;;;;;;;;;5025563;28;20215;-61
2024/01/17 11:53:43;;;;;;;20.23;8.17;;;;;;;;;;5026666;28;20208;-61
2024/01/17 11:56:12;;;;;;;20.87;11.63;;;;;;;;;;5030870;28;20231;-61
2024/01/17 11:58:40;;;;;;;18.27;9.67;;;;;;;;;;5026138;28;20227;-61
2024/01/17 12:01:07;;;;;;;13.23;6.70;;;;;;;;;;5025058;28;20210;-61
2024/01/17 12:03:34;;;;;;;19.07;8.93;;;;;;;;;;5027122;28;20296;-61
2024/01/17 12:06:02;;;;;;;15.83;8.93;;;;;;;;;;5027481;28;20286;-61
2024/01/17 12:08:29;;;;;;;16.33;8.87;;;;;;;;;;5026469;28;20573;-61
2024/01/17 12:10:57;;;;;;;17.70;9.17;;;;;;;;;;5026584;28;20300;-65
2024/01/17 12:13:26;;;;;;;17.60;8.33;;;;;;;;;;5027140;28;20297;-59
2024/01/17 12:15:54;;;;;;;14.90;8.37;;;;;;;;;;5019014;28;20326;-62
2024/01/17 12:18:21;;;;;;;18.37;8.93;;;;;;;;;;5024609;28;20286;-61
2024/01/17 12:20:49;;;;;;;13.40;8.40;;;;;;;;;;5025773;28;20299;-61
2024/01/17 12:23:16;;;;;;;20.67;8.53;;;;;;;;;;5026374;28;20282;-59
2024/01/17 12:25:43;;;;;;;13.80;8.10;;;;;;;;;;5026102;28;20246;-59
2024/01/17 12:28:11;;;;;;;18.93;9.50;;;;;;;;;;5038245;28;20598;-60
2024/01/17 12:30:39;;;;;;;10.97;6.90;;;;;;;;;;5031916;28;20206;-60
2024/01/17 12:33:06;;;;;;;14.70;9.03;;;;;;;;;;5027677;28;20204;-60
2024/01/17 12:35:34;;;;;;;15.73;9.00;;;;;;;;;;5027662;28;20201;-61
2024/01/17 12:38:01;;;;;;;19.77;9.80;;;;;;;;;;5027691;28;20267;-60
2024/01/17 12:40:28;;;;;;;15.03;8.47;;;;;;;;;;5029076;28;20222;-61
2024/01/17 12:42:57;;;;;;;16.60;8.50;;;;;;;;;;5027654;28;20217;-60
2024/01/17 12:45:25;;;;;;;11.50;6.40;;;;;;;;;;5025390;28;20204;-59
2024/01/17 12:47:54;;;;;;;13.13;8.03;;;;;;;;;;5032745;28;20207;-60
2024/01/17 12:50:21;;;;;;;13.83;8.40;;;;;;;;;;5036315;28;20291;-59
2024/01/17 12:52:48;;;;;;;17.60;9.17;;;;;;;;;;5037042;28;20744;-61
2024/01/17 12:55:18;;;;;;;15.07;7.60;;;;;;;;;;5032173;28;20212;-60
2024/01/17 12:57:45;;;;;;;17.63;8.57;;;;;;;;;;5031089;28;20232;-64
2024/01/17 13:00:13;;;;;;;14.83;9.17;;;;;;;;;;5032130;28;20209;-59
2024/01/17 13:02:40;;;;;;;17.83;9.43;;;;;;;;;;5029748;28;20212;-59
2024/01/17 13:05:09;;;;;;;15.30;8.53;;;;;;;;;;5029443;28;20683;-60
2024/01/17 13:07:36;;;;;;;18.70;10.10;;;;;;;;;;5033369;28;20240;-60
2024/01/17 13:10:14;;;;;;;16.23;9.27;;;;;;;;;;5035836;28;20223;-59
2024/01/17 13:12:41;;;;;;;21.80;11.50;;;;;;;;;;5031263;28;20204;-60
2024/01/17 13:15:09;;;;;;;17.57;8.80;;;;;;;;;;5033726;28;20654;-59
2024/01/17 13:17:36;;;;;;;14.07;8.90;;;;;;;;;;5030006;28;20237;-59
2024/01/17 13:20:11;;;;;;;17.43;8.80;;;;;;;;;;5031139;28;20207;-59
2024/01/17 13:22:39;;;;;;;11.80;7.90;;;;;;;;;;5029426;28;20295;-62
2024/01/17 13:25:07;;;;;;;14.30;8.00;;;;;;;;;;5031783;28;20212;-59
2024/01/17 13:27:34;;;;;;;13.73;8.50;;;;;;;;;;5031692;28;20207;-59
2024/01/17 13:30:03;;;;;;;14.50;7.87;;;;;;;;;;5037731;28;20215;-60
2024/01/17 13:32:40;;;;;;;15.97;8.83;;;;;;;;;;5028904;28;20200;-59
2024/01/17 13:35:08;;;;;;;9.70;6.70;;;;;;;;;;5034448;28;20219;-59
2024/01/17 13:37:35;;;;;;;14.50;8.17;;;;;;;;;;5039523;28;20332;-59
2024/01/17 13:40:03;;;;;;;17.03;9.03;;;;;;;;;;5026791;28;20572;-61
2024/01/17 13:42:30;;;;;;;12.90;7.53;;;;;;;;;;5029678;28;20245;-59
2024/01/17 13:45:08;;;;;;;10.93;7.40;;;;;;;;;;5032057;28;20208;-60
2024/01/17 13:47:35;;;;;;;12.73;8.27;;;;;;;;;;5027238;28;20225;-58
2024/01/17 13:50:10;;;;;;;12.10;6.73;;;;;;;;;;5024583;28;20312;-58
2024/01/17 13:52:43;;;;;;;14.37;8.07;;;;;;;;;;5032008;28;20581;-61
2024/01/17 13:55:11;;;;;;;13.97;8.83;;;;;;;;;;5032333;28;20992;-59
2024/01/17 13:57:38;;;;;;;12.77;7.73;;;;;;;;;;5029139;28;20232;-60
2024/01/17 14:00:05;;;;;;;13.77;8.53;;;;;;;;;;5028924;28;20208;-59
2024/01/17 14:02:32;;;;;;;10.67;7.50;;;;;;;;;;5034566;28;20230;-58
2024/01/17 14:04:59;;;;;;;13.23;6.93;;;;;;;;;;5035491;28;20210;-58
2024/01/17 14:07:27;;;;;;;13.73;8.30;;;;;;;;;;5032689;28;20232;-58
2024/01/17 14:09:54;;;;;;;14.10;7.63;;;;;;;;;;5032633;28;20271;-59
2024/01/17 14:12:22;;;;;;;12.40;7.77;;;;;;;;;;5028419;28;20214;-59
2024/01/17 14:14:50;;;;;;;7.77;5.53;;;;;;;;;;5027713;28;20227;-59
2024/01/17 14:17:18;;;;;;;12.60;6.97;;;;;;;;;;5029110;28;20234;-59
2024/01/17 14:19:45;;;;;;;11.70;7.73;;;;;;;;;;5036373;28;20209;-60
2024/01/17 14:22:13;;;;;;;10.77;7.47;;;;;;;;;;5027917;28;20209;-59
2024/01/17 14:24:41;;;;;;;3.87;3.00;;;;;;;;;;5027054;28;20258;-60
2024/01/17 14:27:08;;;;;;;12.97;7.67;;;;;;;;;;5037480;28;20294;-60
2024/01/17 14:29:37;;;;;;;10.63;6.17;;;;;;;;;;5043237;28;20216;-59
2024/01/17 14:32:05;;;;;;;12.00;7.80;;;;;;;;;;5037152;28;20241;-60
2024/01/17 14:34:32;;;;;;;10.67;7.50;;;;;;;;;;5040771;28;20205;-59
2024/01/17 14:36:59;;;;;;;12.17;7.23;;;;;;;;;;5026397;28;20233;-60
2024/01/17 14:39:26;;;;;;;10.50;7.63;;;;;;;;;;5026034;28;20207;-58
2024/01/17 14:41:55;;;;;;;12.23;7.80;;;;;;;;;;5028167;28;20313;-59